Terminal Aerodrome Forecast
Issued by NWS Lake Charles, LA

Current Version | Previous Version | Text Only | Print | Product List | Glossary On
Versions: 1 2 3 4 5 6 7 8 9 10 11 12 13 14 15 16 17 18 19 20 21 22 23 24
833
FTUS44 KLCH 061723
TAFARA
TAF
KARA 061723Z 0618/0718 VRB06KT P6SM SCT013
     FM070200 VRB05KT P6SM OVC012
     FM070300 VRB03KT 3SM BR OVC007
     FM071600 08006KT P6SM BKN007=

USA.gov is the U.S. government's official web portal to all federal, state and local government web resources and services.